createdAt,value
2023-03-05T00:02:17.792Z,100282.75
2023-03-05T00:05:20.115Z,100286.59
2023-03-05T00:08:22.460Z,100285.03
2023-03-05T00:11:28.157Z,100285.81
2023-03-05T00:14:30.495Z,100275.31
2023-03-05T00:17:32.804Z,100268.91
2023-03-05T00:20:36.120Z,100272.59
2023-03-05T00:23:38.479Z,100259.91
2023-03-05T00:26:41.104Z,100283.00
2023-03-05T00:29:43.449Z,100284.13
2023-03-05T00:32:45.770Z,100266.88
2023-03-05T00:35:48.982Z,100284.13
2023-03-05T00:38:52.032Z,100278.63
2023-03-05T00:41:54.402Z,100280.53
2023-03-05T00:44:56.778Z,100277.81
2023-03-05T00:48:01.358Z,100283.69
2023-03-05T00:51:04.044Z,100269.69
2023-03-05T00:54:06.921Z,100257.88
2023-03-05T00:57:09.321Z,100266.44
2023-03-05T01:00:12.817Z,100265.41
2023-03-05T01:03:15.252Z,100260.69
2023-03-05T01:06:18.044Z,100270.03
2023-03-05T01:09:21.688Z,100257.78
2023-03-05T01:12:24.192Z,100265.75
2023-03-05T01:15:26.664Z,100262.25
2023-03-05T01:18:29.271Z,100265.75
2023-03-05T01:21:31.753Z,100252.22
2023-03-05T01:24:34.090Z,100249.84
2023-03-05T01:27:36.404Z,100256.50
2023-03-05T01:30:38.729Z,100250.19
2023-03-05T01:33:41.097Z,100243.00
2023-03-05T01:36:43.718Z,100269.25
2023-03-05T01:39:46.033Z,100261.13
2023-03-05T01:42:58.633Z,100254.56
2023-03-05T01:46:13.164Z,100264.63
2023-03-05T01:49:21.490Z,100255.72
2023-03-05T01:52:25.106Z,100258.41
2023-03-05T01:55:29.810Z,100270.03
2023-03-05T01:58:32.180Z,100246.50
2023-03-05T02:01:40.130Z,100257.97
2023-03-05T02:05:29.526Z,100262.25
2023-03-05T02:08:31.883Z,100251.22
2023-03-05T02:11:34.794Z,100258.75
2023-03-05T02:14:37.844Z,100257.19
2023-03-05T02:17:40.525Z,100254.72
2023-03-05T02:20:50.798Z,100269.25
2023-03-05T02:23:53.108Z,100271.88
2023-03-05T02:26:56.640Z,100250.44
2023-03-05T02:29:58.988Z,100241.50
2023-03-05T02:33:01.829Z,100261.47
2023-03-05T02:36:04.746Z,100261.47
2023-03-05T02:39:07.381Z,100247.97
2023-03-05T02:42:09.740Z,100251.13
2023-03-05T02:45:13.502Z,100266.88
2023-03-05T02:48:16.000Z,100241.75
2023-03-05T02:51:18.947Z,100254.81
2023-03-05T02:54:22.453Z,100255.25
2023-03-05T02:57:25.043Z,100242.06
2023-03-05T03:00:28.487Z,100255.25
2023-03-05T03:03:31.155Z,100249.50
2023-03-05T03:06:33.516Z,100241.28
2023-03-05T03:09:36.139Z,100238.47
2023-03-05T03:12:43.360Z,100225.03
2023-03-05T03:15:45.721Z,100235.75
2023-03-05T03:18:48.983Z,100224.03
2023-03-05T03:21:51.430Z,100236.88
2023-03-05T03:24:53.773Z,100239.34
2023-03-05T03:27:56.137Z,100236.66
2023-03-05T03:30:58.526Z,100238.13
2023-03-05T03:34:00.968Z,100235.06
2023-03-05T03:37:03.344Z,100223.34
2023-03-05T03:40:06.820Z,100228.06
2023-03-05T03:43:09.559Z,100229.22
2023-03-05T03:46:11.969Z,100226.94
2023-03-05T03:49:20.117Z,100219.94
2023-03-05T03:52:23.135Z,100213.97
2023-03-05T03:55:25.449Z,100211.03
2023-03-05T03:58:27.779Z,100212.06
2023-03-05T04:01:30.132Z,100202.38
2023-03-05T04:04:32.486Z,100204.81
2023-03-05T04:07:34.872Z,100203.50
2023-03-05T04:10:37.380Z,100202.47
2023-03-05T04:13:39.682Z,100205.41
2023-03-05T04:16:41.994Z,100202.22
2023-03-05T04:19:44.521Z,100211.63
2023-03-05T04:22:46.901Z,100199.78
2023-03-05T04:25:49.279Z,100203.28
2023-03-05T04:28:51.597Z,100214.78
2023-03-05T04:31:53.918Z,100219.06
2023-03-05T04:34:57.182Z,100206.22
2023-03-05T04:37:59.519Z,100217.47
2023-03-05T04:41:01.838Z,100219.41
2023-03-05T04:44:04.284Z,100215.13
2023-03-05T04:47:06.657Z,100217.81
2023-03-05T04:50:09.670Z,100189.53
2023-03-05T04:53:12.132Z,100201.34
2023-03-05T04:56:14.448Z,100201.13
2023-03-05T04:59:16.850Z,100198.97
2023-03-05T05:02:19.201Z,100195.72
2023-03-05T05:05:24.472Z,100204.94
2023-03-05T05:08:27.565Z,100202.22
2023-03-05T05:11:29.934Z,100190.41
2023-03-05T05:14:34.099Z,100191.78
2023-03-05T05:17:36.714Z,100187.25
2023-03-05T05:20:39.299Z,100204.16
2023-03-05T05:23:41.840Z,100204.94
2023-03-05T05:26:44.170Z,100216.91
2023-03-05T05:29:50.293Z,100209.56
2023-03-05T05:32:52.677Z,100209.56
2023-03-05T05:35:55.049Z,100206.41
2023-03-05T05:38:57.425Z,100222.31
2023-03-05T05:41:59.731Z,100211.50
2023-03-05T05:45:03.122Z,100208.00
2023-03-05T05:48:05.671Z,100217.25
2023-03-05T05:51:10.438Z,100212.09
2023-03-05T05:54:16.220Z,100220.22
2023-03-05T05:57:18.527Z,100222.22
2023-03-05T06:00:21.302Z,100218.28
2023-03-05T06:03:23.834Z,100226.41
2023-03-05T06:06:27.170Z,100225.97
2023-03-05T06:09:29.974Z,100249.09
2023-03-05T06:12:32.322Z,100235.31
2023-03-05T06:15:34.681Z,100248.84
2023-03-05T06:18:37.003Z,100257.44
2023-03-05T06:21:39.550Z,100251.13
2023-03-05T06:24:41.925Z,100250.88
2023-03-05T06:27:44.274Z,100256.19
2023-03-05T06:30:46.689Z,100253.25
2023-03-05T06:33:49.836Z,100250.44
2023-03-05T06:36:52.229Z,100249.19
2023-03-05T06:39:54.586Z,100271.16
2023-03-05T06:42:56.898Z,100269.25
2023-03-05T06:46:07.448Z,100275.34
2023-03-05T06:49:10.549Z,100286.28
2023-03-05T06:52:12.958Z,100289.78
2023-03-05T06:55:15.400Z,100264.22
2023-03-05T06:58:17.773Z,100285.16
2023-03-05T07:01:20.599Z,100273.34
2023-03-05T07:04:24.482Z,100278.97
2023-03-05T07:07:26.919Z,100267.13
2023-03-05T07:10:29.276Z,100275.47
2023-03-05T07:13:31.653Z,100280.44
2023-03-05T07:16:35.635Z,100267.13
2023-03-05T07:19:38.434Z,100280.00
2023-03-05T07:22:40.833Z,100280.00
2023-03-05T07:25:43.242Z,100287.88
2023-03-05T07:28:46.121Z,100290.59
2023-03-05T07:31:48.434Z,100284.38
2023-03-05T07:34:50.763Z,100276.84
2023-03-05T07:37:54.963Z,100278.97
2023-03-05T07:40:57.516Z,100262.16
2023-03-05T07:44:00.077Z,100276.69
2023-03-05T07:47:02.462Z,100266.00
2023-03-05T07:50:05.333Z,100265.66
2023-03-05T07:53:07.945Z,100267.44
2023-03-05T07:56:10.676Z,100262.34
2023-03-05T07:59:13.867Z,100271.38
2023-03-05T08:02:16.566Z,100256.75
2023-03-05T08:05:19.128Z,100259.19
2023-03-05T08:08:21.490Z,100259.19
2023-03-05T08:11:24.066Z,100259.19
2023-03-05T08:14:26.652Z,100246.00
2023-03-05T08:17:29.008Z,100240.59
2023-03-05T08:20:31.524Z,100263.00
2023-03-05T08:23:34.622Z,100247.88
2023-03-05T08:26:41.166Z,100248.75
2023-03-05T08:29:43.595Z,100255.31
2023-03-05T08:32:45.939Z,100247.09
2023-03-05T08:35:48.371Z,100231.75
2023-03-05T08:38:50.949Z,100248.56
2023-03-05T08:41:53.341Z,100257.69
2023-03-05T08:44:55.763Z,100240.44
2023-03-05T08:47:58.271Z,100221.97
2023-03-05T08:51:12.840Z,100250.78
2023-03-05T08:54:15.236Z,100250.34
2023-03-05T08:57:17.604Z,100246.59
2023-03-05T09:00:20.323Z,100248.94
2023-03-05T09:03:22.841Z,100243.09
2023-03-05T09:06:26.077Z,100244.41
2023-03-05T09:09:30.158Z,100248.28
2023-03-05T09:12:32.566Z,100234.41
2023-03-05T09:15:34.923Z,100214.28
2023-03-05T09:18:37.441Z,100242.50
2023-03-05T09:21:39.838Z,100231.72
2023-03-05T09:24:43.509Z,100251.94
2023-03-05T09:27:45.926Z,100255.88
2023-03-05T09:30:48.350Z,100247.63
2023-03-05T09:33:50.854Z,100244.97
2023-03-05T09:36:53.246Z,100250.31
2023-03-05T09:39:56.293Z,100225.66
2023-03-05T09:43:14.605Z,100236.72
2023-03-05T09:46:31.454Z,100224.34
2023-03-05T09:49:47.901Z,100252.09
2023-03-05T09:53:01.906Z,100228.56
2023-03-05T09:56:21.303Z,100245.44
2023-03-05T09:59:29.671Z,100240.78
2023-03-05T10:02:35.720Z,100233.66
2023-03-05T10:06:03.186Z,100234.50
2023-03-05T10:09:11.632Z,100232.94
2023-03-05T10:12:42.395Z,100232.88
2023-03-05T10:15:52.158Z,100216.34
2023-03-05T10:19:00.347Z,100226.16
2023-03-05T10:22:19.657Z,100217.94
2023-03-05T10:25:47.730Z,100219.50
2023-03-05T10:29:03.426Z,100210.78
2023-03-05T10:32:18.987Z,100199.78
2023-03-05T10:35:46.109Z,100201.47
2023-03-05T10:39:19.560Z,100204.84
2023-03-05T10:42:31.419Z,100194.63
2023-03-05T10:45:40.700Z,100200.00
2023-03-05T10:49:17.048Z,100195.34
2023-03-05T10:52:32.731Z,100189.34
2023-03-05T10:55:35.143Z,100186.22
2023-03-05T10:58:37.641Z,100172.63
2023-03-05T11:01:40.233Z,100175.41
2023-03-05T11:04:43.062Z,100163.97
2023-03-05T11:07:45.448Z,100155.75
2023-03-05T11:10:47.938Z,100162.03
2023-03-05T11:14:05.232Z,100150.31
2023-03-05T11:18:03.431Z,100155.88
2023-03-05T11:21:28.624Z,100146.94
2023-03-05T11:24:31.100Z,100149.25
2023-03-05T11:27:39.037Z,100123.38
2023-03-05T11:30:41.566Z,100123.75
2023-03-05T11:34:26.149Z,100141.38
2023-03-05T11:37:30.958Z,100133.47
2023-03-05T11:40:37.522Z,100136.25
2023-03-05T11:43:41.688Z,100125.75
2023-03-05T11:46:48.053Z,100124.16
2023-03-05T11:49:55.079Z,100118.38
2023-03-05T11:53:12.429Z,100125.75
2023-03-05T11:56:20.634Z,100122.59
2023-03-05T11:59:33.765Z,100118.38
2023-03-05T12:02:37.252Z,100090.28
2023-03-05T12:05:42.727Z,100108.66
2023-03-05T12:08:49.845Z,100096.06
2023-03-05T12:11:56.747Z,100089.00
2023-03-05T12:15:25.461Z,100084.28
2023-03-05T12:18:33.944Z,100078.44
2023-03-05T12:21:38.202Z,100079.16
2023-03-05T12:24:40.918Z,100057.16
2023-03-05T12:27:43.652Z,100075.59
2023-03-05T12:30:46.189Z,100069.78
2023-03-05T12:33:48.575Z,100070.59
2023-03-05T12:36:53.253Z,100067.88
2023-03-05T12:40:04.740Z,100065.16
2023-03-05T12:43:28.344Z,100055.78
2023-03-05T12:46:35.865Z,100052.72
2023-03-05T12:49:39.635Z,100027.22
2023-03-05T12:52:42.696Z,100043.72
2023-03-05T12:55:48.042Z,100050.28
2023-03-05T12:58:52.535Z,100045.50
2023-03-05T13:02:03.073Z,100042.72
2023-03-05T13:05:17.966Z,100049.31
2023-03-05T13:08:28.857Z,100039.09
2023-03-05T13:11:34.481Z,100024.88
2023-03-05T13:14:41.387Z,100065.41
2023-03-05T13:18:07.458Z,100054.19
2023-03-05T13:21:17.839Z,100054.63
2023-03-05T13:24:20.485Z,100044.06
2023-03-05T13:27:30.975Z,100031.22
2023-03-05T13:30:34.719Z,100035.91
2023-03-05T13:33:37.808Z,100034.25
2023-03-05T13:36:40.327Z,100038.34
2023-03-05T13:39:54.590Z,100045.13
2023-03-05T13:43:12.112Z,100030.34
2023-03-05T13:46:32.728Z,100035.47
2023-03-05T13:49:35.379Z,100039.00
2023-03-05T13:52:38.798Z,100031.56
2023-03-05T13:55:41.460Z,100035.84
2023-03-05T13:58:49.555Z,100036.63
2023-03-05T14:01:52.847Z,100020.13
2023-03-05T14:04:56.002Z,100027.53
2023-03-05T14:07:58.717Z,100028.69
2023-03-05T14:11:12.521Z,100031.38
2023-03-05T14:14:17.919Z,100024.31
2023-03-05T14:17:22.643Z,100018.03
2023-03-05T14:20:29.859Z,100013.22
2023-03-05T14:23:35.179Z,100024.16
2023-03-05T14:26:58.013Z,100026.06
2023-03-05T14:30:03.667Z,100020.53
2023-03-05T14:33:06.301Z,100032.09
2023-03-05T14:36:09.929Z,100011.44
2023-03-05T14:39:26.387Z,100007.47
2023-03-05T14:42:38.788Z,100017.13
2023-03-05T14:45:43.790Z,99999.50
2023-03-05T14:48:47.031Z,100010.38
2023-03-05T14:51:49.546Z,99997.06
2023-03-05T14:54:53.065Z,99985.66
2023-03-05T14:58:00.332Z,100000.84
2023-03-05T15:01:02.981Z,99995.69
2023-03-05T15:04:05.371Z,99997.56
2023-03-05T15:07:14.102Z,99993.22
2023-03-05T15:10:19.473Z,99996.28
2023-03-05T15:13:22.027Z,99994.59
2023-03-05T15:16:24.489Z,99996.13
2023-03-05T15:19:27.045Z,100000.28
2023-03-05T15:22:29.579Z,99995.16
2023-03-05T15:25:32.276Z,99990.84
2023-03-05T15:28:36.909Z,99973.53
2023-03-05T15:31:40.589Z,99970.75
2023-03-05T15:34:43.384Z,99975.81
2023-03-05T15:37:45.756Z,99971.41
2023-03-05T15:40:49.067Z,99974.06
2023-03-05T15:43:51.852Z,99972.03
2023-03-05T15:46:56.662Z,99990.75
2023-03-05T15:49:59.179Z,99978.25
2023-03-05T15:53:01.567Z,99979.44
2023-03-05T15:56:04.272Z,99979.69
2023-03-05T15:59:07.883Z,99952.78
2023-03-05T16:02:10.472Z,99960.19
2023-03-05T16:05:13.032Z,99974.09
2023-03-05T16:08:15.689Z,99977.22
2023-03-05T16:11:19.251Z,99977.53
2023-03-05T16:14:23.605Z,99974.69
2023-03-05T16:17:26.208Z,99994.72
2023-03-05T16:20:29.670Z,99981.84
2023-03-05T16:23:32.299Z,99966.84
2023-03-05T16:26:36.428Z,99990.00
2023-03-05T16:29:38.976Z,99986.81
2023-03-05T16:32:41.954Z,99987.91
2023-03-05T16:35:45.623Z,99962.53
2023-03-05T16:38:49.919Z,99969.25
2023-03-05T16:41:52.850Z,99972.34
2023-03-05T16:44:55.432Z,99974.66
2023-03-05T16:47:58.306Z,99984.81
2023-03-05T16:51:00.664Z,99988.53
2023-03-05T16:54:03.703Z,99976.59
2023-03-05T16:57:06.245Z,99971.25
2023-03-05T17:00:11.583Z,99986.91
2023-03-05T17:03:14.238Z,99994.75
2023-03-05T17:06:19.669Z,99963.47
2023-03-05T17:09:25.592Z,99981.78
2023-03-05T17:12:27.973Z,99993.56
2023-03-05T17:15:30.564Z,99992.78
2023-03-05T17:18:33.616Z,100003.97
2023-03-05T17:21:36.301Z,99995.69
2023-03-05T17:24:42.754Z,99997.59
2023-03-05T17:27:45.472Z,99998.31
2023-03-05T17:30:48.009Z,100004.50
2023-03-05T17:33:50.924Z,99985.69
2023-03-05T17:36:53.267Z,99996.59
2023-03-05T17:39:56.364Z,99994.53
2023-03-05T17:42:58.849Z,99997.66
2023-03-05T17:46:02.018Z,99992.88
2023-03-05T17:49:04.679Z,99988.97
2023-03-05T17:52:07.312Z,99989.66
2023-03-05T17:55:11.765Z,99998.16
2023-03-05T17:58:14.205Z,100004.31
2023-03-05T18:01:43.078Z,100010.44
2023-03-05T18:04:47.927Z,100002.91
2023-03-05T18:07:51.462Z,100000.09
2023-03-05T18:10:54.472Z,100003.97
2023-03-05T18:13:57.116Z,99996.41
2023-03-05T18:17:00.389Z,99997.56
2023-03-05T18:20:04.319Z,100003.69
2023-03-05T18:23:06.904Z,100005.84
2023-03-05T18:26:09.435Z,99995.28
2023-03-05T18:29:11.932Z,99993.25
2023-03-05T18:32:14.498Z,99988.84
2023-03-05T18:35:17.963Z,100013.00
2023-03-05T18:38:25.395Z,100009.03
2023-03-05T18:41:28.447Z,99998.81
2023-03-05T18:44:31.076Z,100008.13
2023-03-05T18:47:34.006Z,100003.00
2023-03-05T18:50:36.543Z,100000.56
2023-03-05T18:53:39.239Z,100000.53
2023-03-05T18:56:42.215Z,99993.50
2023-03-05T18:59:44.810Z,99982.16
2023-03-05T19:02:47.481Z,99992.31
2023-03-05T19:05:51.225Z,99983.44
2023-03-05T19:09:08.738Z,99998.78
2023-03-05T19:12:14.459Z,99997.56
2023-03-05T19:15:17.355Z,100006.38
2023-03-05T19:18:28.054Z,100002.75
2023-03-05T19:21:59.891Z,99986.50
2023-03-05T19:25:02.947Z,100004.44
2023-03-05T19:28:05.486Z,100009.00
2023-03-05T19:31:08.630Z,99992.88
2023-03-05T19:34:11.245Z,100002.91
2023-03-05T19:37:14.238Z,100002.88
2023-03-05T19:40:16.949Z,99993.56
2023-03-05T19:43:19.396Z,99997.06
2023-03-05T19:46:22.090Z,99983.78
2023-03-05T19:49:24.601Z,99995.16
2023-03-05T19:52:27.706Z,99987.00
2023-03-05T19:55:30.249Z,99995.81
2023-03-05T19:58:34.413Z,100000.72
2023-03-05T20:01:37.380Z,99990.28
2023-03-05T20:04:41.512Z,99998.59
2023-03-05T20:07:44.086Z,99988.81
2023-03-05T20:10:46.640Z,99984.53
2023-03-05T20:13:49.575Z,99985.34
2023-03-05T20:16:52.208Z,99984.94
2023-03-05T20:19:58.969Z,99997.41
2023-03-05T20:23:02.057Z,99993.06
2023-03-05T20:26:06.767Z,99989.16
2023-03-05T20:29:09.637Z,99991.84
2023-03-05T20:32:12.268Z,99984.00
2023-03-05T20:35:17.533Z,99987.03
2023-03-05T20:38:21.670Z,99979.22
2023-03-05T20:41:24.382Z,99965.84
2023-03-05T20:44:26.922Z,99982.59
2023-03-05T20:47:47.062Z,99977.50
2023-03-05T20:50:49.729Z,99985.22
2023-03-05T20:53:54.313Z,99986.31
2023-03-05T20:56:56.896Z,99984.25
2023-03-05T21:00:00.463Z,99950.19
2023-03-05T21:03:03.193Z,99977.13
2023-03-05T21:06:06.425Z,99989.53
2023-03-05T21:09:08.960Z,99984.00
2023-03-05T21:12:11.521Z,99976.88
2023-03-05T21:15:16.726Z,99987.75
2023-03-05T21:18:19.279Z,99973.59
2023-03-05T21:21:21.641Z,99979.81
2023-03-05T21:25:25.220Z,99972.69
2023-03-05T21:28:28.832Z,99965.88
2023-03-05T21:31:31.262Z,99974.84
2023-03-05T21:34:33.881Z,99976.31
2023-03-05T21:37:42.449Z,99957.44
2023-03-05T21:40:47.398Z,99968.66
2023-03-05T21:43:49.861Z,99971.81
2023-03-05T21:46:52.286Z,99972.91
2023-03-05T21:49:54.783Z,99966.63
2023-03-05T21:52:58.980Z,99950.94
2023-03-05T21:56:25.474Z,99955.66
2023-03-05T21:59:28.011Z,99957.94
2023-03-05T22:02:30.397Z,99950.16
2023-03-05T22:05:32.720Z,99950.03
2023-03-05T22:08:35.052Z,99939.78
2023-03-05T22:11:37.462Z,99959.72
2023-03-05T22:14:39.828Z,99960.81
2023-03-05T22:17:42.122Z,99929.06
2023-03-05T22:20:44.990Z,99956.34
2023-03-05T22:23:47.758Z,99938.66
2023-03-05T22:26:50.103Z,99956.94
2023-03-05T22:29:52.458Z,99951.81
2023-03-05T22:32:54.885Z,99941.75
2023-03-05T22:35:57.393Z,99956.22
2023-03-05T22:38:59.758Z,99938.19
2023-03-05T22:42:02.170Z,99943.69
2023-03-05T22:45:05.072Z,99932.28
2023-03-05T22:48:11.086Z,99933.84
2023-03-05T22:51:13.826Z,99940.88
2023-03-05T22:54:16.201Z,99943.09
2023-03-05T22:57:18.722Z,99934.22
2023-03-05T23:00:23.745Z,99950.78
2023-03-05T23:03:26.696Z,99939.16
2023-03-05T23:06:29.260Z,99920.47
2023-03-05T23:09:31.609Z,99921.22
2023-03-05T23:12:36.030Z,99926.31
2023-03-05T23:15:39.206Z,99916.09
2023-03-05T23:18:41.538Z,99921.59
2023-03-05T23:21:43.887Z,99934.81
2023-03-05T23:24:46.866Z,99923.44
2023-03-05T23:27:49.832Z,99932.41
2023-03-05T23:30:52.192Z,99941.31
2023-03-05T23:33:54.558Z,99934.22
2023-03-05T23:36:56.936Z,99920.88
2023-03-05T23:39:59.676Z,99932.16
2023-03-05T23:43:02.436Z,99926.56
2023-03-05T23:46:10.792Z,99936.34
2023-03-05T23:49:13.144Z,99919.47
2023-03-05T23:52:15.518Z,99920.53
2023-03-05T23:55:23.010Z,99930.69
2023-03-05T23:58:25.639Z,99920.09
